Time;durP1;ratioP1;P1;durP2;ratioP2;P2;SDS_P1;SDS_P2;PMS_P1;PMS_P2;Temp;Humidity;BMP_temperature;BMP_pressure;BME280_temperature;BME280_humidity;BME280_pressure;Samples;Min_cycle;Max_cycle;Signal;HPM_P1;HPM_P2
2023/04/21 00:00:15;;;;;;;17.67;12.23;;;8.00;99.90;;;;;;5055508;28;20579;-65
2023/04/21 00:02:45;;;;;;;20.07;12.57;;;8.00;99.90;;;;;;5052584;28;20586;-66
2023/04/21 00:05:13;;;;;;;19.33;11.80;;;8.00;99.90;;;;;;5049361;28;20718;-66
2023/04/21 00:07:43;;;;;;;19.17;11.37;;;8.00;99.90;;;;;;5055968;28;20699;-66
2023/04/21 00:10:12;;;;;;;17.63;11.50;;;7.90;99.90;;;;;;5055800;28;20324;-66
2023/04/21 00:12:40;;;;;;;20.77;12.40;;;7.90;99.90;;;;;;5055838;28;20227;-66
2023/04/21 00:15:09;;;;;;;18.30;11.57;;;7.80;99.90;;;;;;5056073;28;20246;-66
2023/04/21 00:17:38;;;;;;;19.60;11.40;;;7.80;99.90;;;;;;5061275;28;20688;-66
2023/04/21 00:20:09;;;;;;;15.97;11.43;;;7.80;99.90;;;;;;5048036;28;20691;-66
2023/04/21 00:22:37;;;;;;;16.17;11.47;;;7.80;99.90;;;;;;5055390;28;20758;-66
2023/04/21 00:25:07;;;;;;;17.00;11.03;;;7.70;99.90;;;;;;5055808;28;20227;-66
2023/04/21 00:27:36;;;;;;;14.43;11.43;;;7.80;99.90;;;;;;5055583;28;20638;-66
2023/04/21 00:30:05;;;;;;;15.33;11.00;;;7.70;99.90;;;;;;5037518;28;20235;-66
2023/04/21 00:32:33;;;;;;;17.63;11.00;;;7.70;99.90;;;;;;5036652;28;20225;-66
2023/04/21 00:35:02;;;;;;;19.83;11.87;;;7.70;99.90;;;;;;5054887;28;20618;-66
2023/04/21 00:37:30;;;;;;;14.93;11.57;;;7.70;99.90;;;;;;5055163;28;20224;-66
2023/04/21 00:39:58;;;;;;;18.70;12.27;;;7.70;99.90;;;;;;5037386;28;20228;-66
2023/04/21 00:42:28;;;;;;;14.67;10.43;;;7.70;99.90;;;;;;5055036;28;20236;-66
2023/04/21 00:44:56;;;;;;;15.93;10.63;;;7.70;99.90;;;;;;5053909;28;20235;-66
2023/04/21 00:47:24;;;;;;;17.53;11.50;;;7.70;99.90;;;;;;5060775;28;20216;-66
2023/04/21 00:49:52;;;;;;;14.90;11.07;;;7.70;99.90;;;;;;5037037;28;20235;-66
2023/04/21 00:52:21;;;;;;;16.73;11.47;;;7.70;99.90;;;;;;5037170;28;20228;-66
2023/04/21 00:54:49;;;;;;;18.73;10.93;;;7.70;99.90;;;;;;5054206;28;20228;-66
2023/04/21 00:57:17;;;;;;;16.47;10.53;;;7.70;99.90;;;;;;5036440;28;20243;-66
2023/04/21 00:59:50;;;;;;;13.80;10.73;;;7.60;99.90;;;;;;5054971;28;20228;-66
2023/04/21 01:02:19;;;;;;;17.43;11.57;;;7.60;99.90;;;;;;5054982;28;20232;-60
2023/04/21 01:04:48;;;;;;;16.47;11.93;;;7.60;99.90;;;;;;5052644;22;20314;-61
2023/04/21 01:07:16;;;;;;;14.80;10.73;;;7.60;99.90;;;;;;5049723;28;20228;-61
2023/04/21 01:09:44;;;;;;;17.07;11.83;;;7.60;99.90;;;;;;5043429;28;20231;-61
2023/04/21 01:12:13;;;;;;;18.30;11.27;;;7.60;99.90;;;;;;5053391;28;20567;-61
2023/04/21 01:14:41;;;;;;;17.67;11.50;;;7.60;99.90;;;;;;5053215;28;20315;-61
2023/04/21 01:17:12;;;;;;;14.57;10.67;;;7.50;99.90;;;;;;5048800;28;20281;-60
2023/04/21 01:19:42;;;;;;;17.50;11.03;;;7.50;99.90;;;;;;5046006;28;20702;-61
2023/04/21 01:22:14;;;;;;;12.37;10.87;;;7.50;99.90;;;;;;5054793;28;20702;-61
2023/04/21 01:24:44;;;;;;;18.20;11.77;;;7.50;99.90;;;;;;5069682;28;20243;-61
2023/04/21 01:27:15;;;;;;;20.30;11.90;;;7.50;99.90;;;;;;5039677;28;20698;-61
2023/04/21 01:29:45;;;;;;;19.17;11.40;;;7.50;99.90;;;;;;5034325;28;20219;-61
2023/04/21 01:32:16;;;;;;;17.43;11.70;;;7.50;99.90;;;;;;5016923;28;20557;-61
2023/04/21 01:34:46;;;;;;;14.50;11.20;;;7.50;99.90;;;;;;5012909;28;20256;-61
2023/04/21 01:37:17;;;;;;;19.90;11.90;;;7.50;99.90;;;;;;5014627;28;20249;-61
2023/04/21 01:39:50;;;;;;;14.33;10.93;;;7.50;99.90;;;;;;5014311;28;20230;-61
2023/04/21 01:42:20;;;;;;;18.10;11.33;;;7.50;99.90;;;;;;5029642;28;20252;-61
2023/04/21 01:44:48;;;;;;;17.33;11.60;;;7.50;99.90;;;;;;5014240;28;20232;-61
2023/04/21 01:47:18;;;;;;;18.23;11.43;;;7.50;99.90;;;;;;5029535;28;20225;-61
2023/04/21 01:49:46;;;;;;;18.97;11.50;;;7.40;99.90;;;;;;5012702;28;20271;-61
2023/04/21 01:52:15;;;;;;;14.97;10.43;;;7.40;99.90;;;;;;5014301;28;20296;-61
2023/04/21 01:54:45;;;;;;;17.43;11.10;;;7.40;99.90;;;;;;5014120;28;20224;-61
2023/04/21 01:57:14;;;;;;;17.57;11.67;;;7.40;99.90;;;;;;5014324;28;20253;-61
2023/04/21 01:59:42;;;;;;;18.90;11.33;;;7.40;99.90;;;;;;5012331;28;20317;-61
2023/04/21 02:02:11;;;;;;;15.93;11.30;;;7.50;99.90;;;;;;5020012;28;20239;-61
2023/04/21 02:04:39;;;;;;;18.77;11.40;;;7.40;99.90;;;;;;5013486;28;20600;-61
2023/04/21 02:07:07;;;;;;;15.97;10.37;;;7.40;99.90;;;;;;5012363;28;20230;-61
2023/04/21 02:09:37;;;;;;;18.00;12.07;;;7.40;99.90;;;;;;5013772;28;20233;-61
2023/04/21 02:12:05;;;;;;;17.83;11.63;;;7.40;99.90;;;;;;5013909;28;20217;-61
2023/04/21 02:14:33;;;;;;;18.40;11.43;;;7.40;99.90;;;;;;5013682;28;20224;-61
2023/04/21 02:17:02;;;;;;;18.53;12.17;;;7.40;99.90;;;;;;5008065;28;20299;-61
2023/04/21 02:19:31;;;;;;;14.23;10.77;;;7.40;99.90;;;;;;5020766;28;20221;-61
2023/04/21 02:21:59;;;;;;;19.53;12.20;;;7.40;99.90;;;;;;5012409;28;20247;-61
2023/04/21 02:24:27;;;;;;;18.80;11.53;;;7.40;99.90;;;;;;5013500;28;20237;-61
2023/04/21 02:26:57;;;;;;;19.07;12.07;;;7.40;99.90;;;;;;5013825;28;20225;-61
2023/04/21 02:29:28;;;;;;;18.57;11.83;;;7.40;99.90;;;;;;5012111;28;20229;-60
2023/04/21 02:31:56;;;;;;;23.13;11.70;;;7.30;99.90;;;;;;5011534;28;20235;-61
2023/04/21 02:34:41;;;;;;;15.40;11.57;;;7.30;99.90;;;;;;5011785;28;20244;-62
2023/04/21 02:37:09;;;;;;;16.00;11.77;;;7.30;99.90;;;;;;5012220;28;20229;-61
2023/04/21 02:39:37;;;;;;;16.10;11.10;;;7.30;99.90;;;;;;5011921;28;20238;-61
2023/04/21 02:42:07;;;;;;;19.47;11.57;;;7.30;99.90;;;;;;5012077;28;20233;-61
2023/04/21 02:44:37;;;;;;;20.97;12.07;;;7.40;99.90;;;;;;5013382;28;20647;-61
2023/04/21 02:47:05;;;;;;;16.40;11.63;;;7.30;99.90;;;;;;5007582;28;20769;-60
2023/04/21 02:49:33;;;;;;;17.30;12.27;;;7.40;99.90;;;;;;5013020;28;20228;-61
2023/04/21 02:52:01;;;;;;;15.10;11.33;;;7.40;99.90;;;;;;5011956;28;20317;-61
2023/04/21 02:54:29;;;;;;;19.53;12.33;;;7.30;99.90;;;;;;5013069;28;20225;-61
2023/04/21 02:56:57;;;;;;;19.37;11.73;;;7.30;99.90;;;;;;5013065;28;20217;-61
2023/04/21 02:59:27;;;;;;;19.03;10.97;;;7.30;99.90;;;;;;5011785;28;20245;-59
2023/04/21 03:01:55;;;;;;;18.67;11.87;;;7.30;99.90;;;;;;5010963;28;20781;-61
2023/04/21 03:04:24;;;;;;;16.97;11.13;;;7.30;99.90;;;;;;5011529;28;20340;-61
2023/04/21 03:06:52;;;;;;;18.60;11.37;;;7.30;99.90;;;;;;5011651;28;20237;-60
2023/04/21 03:09:20;;;;;;;14.87;10.57;;;7.20;99.90;;;;;;5013053;28;20228;-61
2023/04/21 03:11:48;;;;;;;17.73;11.80;;;7.30;99.90;;;;;;5013122;28;20351;-60
2023/04/21 03:14:18;;;;;;;17.10;11.40;;;7.30;99.90;;;;;;5011778;28;20225;-61
2023/04/21 03:16:48;;;;;;;13.50;10.40;;;7.30;99.90;;;;;;5006996;28;20225;-61
2023/04/21 03:19:16;;;;;;;14.73;10.50;;;7.20;99.90;;;;;;5027250;28;20233;-61
2023/04/21 03:21:45;;;;;;;18.37;10.87;;;7.30;99.90;;;;;;5012732;28;20259;-61
2023/04/21 03:24:13;;;;;;;18.10;11.10;;;7.30;99.90;;;;;;5011474;28;20240;-61
2023/04/21 03:26:41;;;;;;;14.07;10.50;;;7.30;99.90;;;;;;5027713;28;20611;-61
2023/04/21 03:29:09;;;;;;;13.57;9.40;;;7.30;99.90;;;;;;5012900;28;20688;-61
2023/04/21 03:31:37;;;;;;;15.77;10.90;;;7.30;99.90;;;;;;5007734;28;20747;-61
2023/04/21 03:34:08;;;;;;;16.03;10.50;;;7.30;99.90;;;;;;5019414;28;20561;-61
2023/04/21 03:36:36;;;;;;;16.57;10.63;;;7.30;99.90;;;;;;5011144;28;20229;-61
2023/04/21 03:39:04;;;;;;;15.47;10.77;;;7.30;99.90;;;;;;5011418;28;20233;-59
2023/04/21 03:41:47;;;;;;;16.27;9.87;;;7.30;99.90;;;;;;5011294;28;20688;-61
2023/04/21 03:44:15;;;;;;;16.67;10.43;;;7.30;99.90;;;;;;4995675;28;20230;-61
2023/04/21 03:46:43;;;;;;;13.87;10.53;;;7.30;99.90;;;;;;4999306;28;20304;-61
2023/04/21 03:49:13;;;;;;;14.30;10.60;;;7.30;99.90;;;;;;5012587;28;20229;-61
2023/04/21 03:51:41;;;;;;;15.43;10.03;;;7.30;99.90;;;;;;5012698;28;20225;-60
2023/04/21 03:54:09;;;;;;;17.07;11.17;;;7.30;99.90;;;;;;5012661;28;20690;-60
2023/04/21 03:56:37;;;;;;;23.50;11.00;;;7.30;99.90;;;;;;5012014;28;20222;-61
2023/04/21 03:59:05;;;;;;;14.60;10.90;;;7.30;99.90;;;;;;5012733;28;20241;-61
2023/04/21 04:01:34;;;;;;;15.97;10.97;;;7.30;99.90;;;;;;5009396;28;20236;-61
2023/04/21 04:04:02;;;;;;;18.10;11.23;;;7.20;99.90;;;;;;5011932;28;20269;-61
2023/04/21 04:06:32;;;;;;;14.83;9.97;;;7.20;99.90;;;;;;5012451;28;20601;-61
2023/04/21 04:09:03;;;;;;;15.13;10.33;;;7.30;99.90;;;;;;5012539;28;20224;-61
2023/04/21 04:11:31;;;;;;;14.63;10.63;;;7.20;99.90;;;;;;5017991;28;20713;-61
2023/04/21 04:14:00;;;;;;;16.33;10.13;;;7.30;99.90;;;;;;4992231;28;20225;-60
2023/04/21 04:16:28;;;;;;;16.93;11.17;;;7.30;99.90;;;;;;4991981;28;20234;-61
2023/04/21 04:18:57;;;;;;;18.33;10.67;;;7.30;99.90;;;;;;4990514;28;20364;-61
2023/04/21 04:21:26;;;;;;;17.43;10.33;;;7.30;99.90;;;;;;4990881;28;20238;-60
2023/04/21 04:23:56;;;;;;;17.77;11.20;;;7.30;99.90;;;;;;4989345;28;20234;-60
2023/04/21 04:26:24;;;;;;;19.67;10.87;;;7.30;99.90;;;;;;4992924;28;20226;-60
2023/04/21 04:28:55;;;;;;;17.30;10.80;;;7.20;99.90;;;;;;4991508;28;20225;-60
2023/04/21 04:31:24;;;;;;;16.23;10.27;;;7.20;99.90;;;;;;5005068;28;20319;-59
2023/04/21 04:33:52;;;;;;;17.47;10.93;;;7.20;99.90;;;;;;5016698;28;20696;-60
2023/04/21 04:36:22;;;;;;;14.00;10.20;;;7.30;99.90;;;;;;5018880;28;20763;-60
2023/04/21 04:38:51;;;;;;;12.97;10.30;;;7.30;99.90;;;;;;5017807;28;20229;-61
2023/04/21 04:41:21;;;;;;;16.37;9.60;;;7.30;99.90;;;;;;5019771;28;20216;-60
2023/04/21 04:43:49;;;;;;;12.53;10.20;;;7.40;99.90;;;;;;5012783;28;20258;-61
2023/04/21 04:46:19;;;;;;;14.63;10.60;;;7.30;99.90;;;;;;5017069;28;20316;-58
2023/04/21 04:48:48;;;;;;;16.63;10.13;;;7.30;99.90;;;;;;5015634;28;20217;-60
2023/04/21 04:51:16;;;;;;;18.17;10.77;;;7.40;99.90;;;;;;5016451;28;20723;-57
2023/04/21 04:53:44;;;;;;;15.80;10.50;;;7.40;99.90;;;;;;5017155;28;21443;-60
2023/04/21 04:56:12;;;;;;;15.87;10.53;;;7.40;99.90;;;;;;5019147;28;20237;-60
2023/04/21 04:58:41;;;;;;;14.10;10.07;;;7.50;99.90;;;;;;5017444;28;20236;-59
2023/04/21 05:01:13;;;;;;;17.53;10.57;;;7.50;99.90;;;;;;5017290;28;20236;-60
2023/04/21 05:03:41;;;;;;;16.90;10.63;;;7.50;99.90;;;;;;5014709;28;20237;-59
2023/04/21 05:06:10;;;;;;;15.30;10.23;;;7.70;99.90;;;;;;5018713;28;20749;-59
2023/04/21 05:08:39;;;;;;;15.60;10.07;;;7.80;99.90;;;;;;5016035;28;21159;-60
2023/04/21 05:11:07;;;;;;;15.27;10.20;;;7.80;99.90;;;;;;5018956;28;20233;-59
2023/04/21 05:13:35;;;;;;;18.40;10.37;;;8.00;99.90;;;;;;5017036;28;21754;-61
2023/04/21 05:16:10;;;;;;;14.77;11.20;;;8.00;99.90;;;;;;5018757;28;21011;-61
2023/04/21 05:18:38;;;;;;;15.70;9.90;;;8.00;99.90;;;;;;5015372;28;20311;-59
2023/04/21 05:21:06;;;;;;;17.03;10.77;;;8.00;99.90;;;;;;5016518;28;20225;-60
2023/04/21 05:23:34;;;;;;;13.67;10.50;;;8.10;99.90;;;;;;5013891;28;21023;-61
2023/04/21 05:26:02;;;;;;;18.00;10.13;;;8.30;99.90;;;;;;5016329;28;20259;-60
2023/04/21 05:28:31;;;;;;;12.90;10.13;;;8.30;99.90;;;;;;5015860;28;20226;-59
2023/04/21 05:31:00;;;;;;;15.87;10.70;;;8.30;99.90;;;;;;5011338;28;20252;-58
2023/04/21 05:33:30;;;;;;;14.20;10.40;;;8.40;99.90;;;;;;4993037;28;20310;-60
2023/04/21 05:35:59;;;;;;;15.10;10.33;;;8.40;99.90;;;;;;4996633;28;20245;-61
2023/04/21 05:38:30;;;;;;;16.23;10.47;;;8.50;99.90;;;;;;4995281;28;20236;-61
2023/04/21 05:40:58;;;;;;;13.40;10.33;;;8.60;99.90;;;;;;4995778;28;20221;-61
2023/04/21 05:43:26;;;;;;;13.20;9.77;;;8.60;99.90;;;;;;4992653;28;20338;-60
2023/04/21 05:45:54;;;;;;;12.53;9.53;;;8.80;99.90;;;;;;4995664;28;20716;-59
2023/04/21 05:48:23;;;;;;;13.03;9.30;;;8.90;99.90;;;;;;4994233;28;20325;-59
2023/04/21 05:50:52;;;;;;;12.70;9.53;;;9.00;99.90;;;;;;4995832;28;20575;-60
2023/04/21 05:53:22;;;;;;;15.47;10.63;;;9.10;99.90;;;;;;4992589;28;20233;-59
2023/04/21 05:55:50;;;;;;;12.80;9.93;;;9.20;99.90;;;;;;4996276;28;20313;-61
2023/04/21 05:58:18;;;;;;;13.97;10.00;;;9.30;99.90;;;;;;4994909;28;20221;-59
2023/04/21 06:00:46;;;;;;;17.07;10.27;;;9.30;99.90;;;;;;4995369;28;20698;-60
2023/04/21 06:03:16;;;;;;;13.67;10.20;;;9.50;99.90;;;;;;4988568;28;20655;-60
2023/04/21 06:05:44;;;;;;;13.07;9.37;;;9.60;99.90;;;;;;4996175;28;20239;-59
2023/04/21 06:08:14;;;;;;;13.63;9.93;;;9.80;99.90;;;;;;4994632;28;20238;-60
2023/04/21 06:10:42;;;;;;;13.63;9.07;;;9.90;99.90;;;;;;4995389;28;20240;-60
2023/04/21 06:13:10;;;;;;;13.77;9.97;;;10.10;99.90;;;;;;4993599;28;20240;-61
2023/04/21 06:15:38;;;;;;;12.83;9.77;;;10.10;99.90;;;;;;4994853;28;20231;-61
2023/04/21 06:18:06;;;;;;;16.37;10.00;;;10.20;99.90;;;;;;4996038;28;20912;-58
2023/04/21 06:20:34;;;;;;;14.47;9.17;;;10.40;99.90;;;;;;4994282;28;20645;-60
2023/04/21 06:23:03;;;;;;;15.87;10.13;;;10.50;99.90;;;;;;4992977;28;20238;-60
2023/04/21 06:25:32;;;;;;;13.40;9.60;;;10.60;99.90;;;;;;4994130;28;20246;-61
2023/04/21 06:28:00;;;;;;;13.83;9.77;;;10.70;99.90;;;;;;4994651;28;21220;-60
2023/04/21 06:30:29;;;;;;;13.70;9.87;;;10.80;99.90;;;;;;4993880;28;20232;-61
2023/04/21 06:32:57;;;;;;;12.53;10.37;;;10.80;99.90;;;;;;4993750;28;20235;-61
2023/04/21 06:35:25;;;;;;;14.33;10.27;;;10.90;99.90;;;;;;4994036;28;20232;-60
2023/04/21 06:37:53;;;;;;;14.50;10.10;;;11.00;99.90;;;;;;4994589;28;20249;-61
2023/04/21 06:40:21;;;;;;;13.53;9.77;;;11.20;99.90;;;;;;4994487;28;20663;-62
2023/04/21 06:42:50;;;;;;;15.00;9.77;;;11.30;99.90;;;;;;4993681;28;20228;-61
2023/04/21 06:45:18;;;;;;;12.07;9.67;;;11.40;99.90;;;;;;4994968;28;20251;-59
2023/04/21 06:47:46;;;;;;;11.80;9.63;;;11.50;99.90;;;;;;4995514;28;20228;-59
2023/04/21 06:50:15;;;;;;;16.53;9.90;;;11.50;99.90;;;;;;4995078;28;20250;-62
2023/04/21 06:52:43;;;;;;;13.07;9.73;;;11.50;99.90;;;;;;4994176;28;20236;-60
2023/04/21 06:55:11;;;;;;;13.47;9.70;;;11.70;99.90;;;;;;4995903;28;20721;-60
2023/04/21 06:57:39;;;;;;;10.67;9.07;;;11.80;99.90;;;;;;4995034;28;20247;-59
2023/04/21 07:00:10;;;;;;;14.73;10.03;;;12.00;99.90;;;;;;4994867;28;20247;-61
2023/04/21 07:02:38;;;;;;;16.13;10.20;;;12.20;99.90;;;;;;5014799;28;20267;-60
2023/04/21 07:05:07;;;;;;;12.53;9.20;;;12.30;99.90;;;;;;5016515;28;20342;-61
2023/04/21 07:07:35;;;;;;;11.47;9.57;;;12.40;99.90;;;;;;5017474;28;20258;-61
2023/04/21 07:10:03;;;;;;;12.70;9.50;;;12.60;99.90;;;;;;5017649;28;20343;-62
2023/04/21 07:12:31;;;;;;;13.37;10.23;;;12.80;99.90;;;;;;5016864;28;20242;-59
2023/04/21 07:14:59;;;;;;;15.17;10.17;;;12.80;99.90;;;;;;5018071;28;20240;-62
2023/04/21 07:17:29;;;;;;;11.03;9.57;;;12.90;99.90;;;;;;5017294;28;20318;-62
2023/04/21 07:19:57;;;;;;;11.97;9.53;;;13.00;99.90;;;;;;5016912;28;20255;-62
2023/04/21 07:22:25;;;;;;;15.80;9.63;;;13.10;99.90;;;;;;5015283;28;20717;-61
2023/04/21 07:24:53;;;;;;;11.67;9.63;;;13.20;99.90;;;;;;5017674;28;20250;-61
2023/04/21 07:27:21;;;;;;;13.87;9.73;;;13.30;99.90;;;;;;5019083;28;20228;-62
2023/04/21 07:29:49;;;;;;;14.60;9.87;;;13.30;99.90;;;;;;5019585;28;20228;-60
2023/04/21 07:32:17;;;;;;;12.73;9.47;;;13.30;99.90;;;;;;4998335;28;20239;-62
2023/04/21 07:34:47;;;;;;;12.13;8.90;;;13.40;99.90;;;;;;4993633;28;20244;-59
2023/04/21 07:37:15;;;;;;;13.30;9.50;;;13.60;99.90;;;;;;4995237;28;20243;-64
2023/04/21 07:39:43;;;;;;;10.63;9.27;;;13.70;99.90;;;;;;4994672;28;20939;-59
2023/04/21 07:42:11;;;;;;;14.10;9.53;;;13.80;99.90;;;;;;4992534;28;20229;-57
2023/04/21 07:44:39;;;;;;;11.60;9.00;;;13.80;99.90;;;;;;4993079;28;20239;-57
2023/04/21 07:47:07;;;;;;;11.27;9.20;;;13.90;99.90;;;;;;4994069;28;20236;-57
2023/04/21 07:49:35;;;;;;;11.30;8.40;;;14.10;99.90;;;;;;4992857;28;20237;-58
2023/04/21 07:52:05;;;;;;;12.47;8.97;;;14.30;99.90;;;;;;4992318;28;20235;-57
2023/04/21 07:54:33;;;;;;;13.37;8.93;;;14.70;99.90;;;;;;4992302;28;20244;-58
2023/04/21 07:57:01;;;;;;;10.33;8.87;;;15.00;99.90;;;;;;4992593;28;20236;-58
2023/04/21 07:59:29;;;;;;;11.60;8.50;;;14.90;99.90;;;;;;4993174;28;20229;-57
2023/04/21 08:01:58;;;;;;;11.97;8.97;;;15.10;99.90;;;;;;4991792;28;20241;-58
2023/04/21 08:04:26;;;;;;;12.80;9.80;;;15.20;99.90;;;;;;4992687;28;20249;-55
2023/04/21 08:06:54;;;;;;;13.67;9.30;;;15.30;99.90;;;;;;5002551;28;20287;-57
2023/04/21 08:09:24;;;;;;;13.20;9.47;;;15.10;99.90;;;;;;5000873;28;20725;-58
2023/04/21 08:11:52;;;;;;;12.33;9.30;;;15.10;99.90;;;;;;5001761;28;20704;-57
2023/04/21 08:14:22;;;;;;;12.93;9.73;;;15.00;99.90;;;;;;5001208;28;20364;-58
2023/04/21 08:16:50;;;;;;;12.87;9.10;;;15.00;99.90;;;;;;5000093;28;20234;-58
2023/04/21 08:19:18;;;;;;;12.20;9.00;;;15.30;99.90;;;;;;4995507;28;20325;-58
2023/04/21 08:21:47;;;;;;;13.43;9.20;;;15.40;99.90;;;;;;4996906;28;20213;-58
2023/04/21 08:24:15;;;;;;;12.73;9.17;;;15.50;99.90;;;;;;4995827;28;20228;-57
2023/04/21 08:26:45;;;;;;;11.10;8.73;;;15.60;99.90;;;;;;4996558;28;20609;-58
2023/04/21 08:29:13;;;;;;;10.43;9.37;;;15.40;99.90;;;;;;4996010;28;20426;-58
2023/04/21 08:31:41;;;;;;;11.50;9.03;;;15.60;99.90;;;;;;4995811;28;20240;-57
2023/04/21 08:34:09;;;;;;;13.37;9.77;;;16.00;99.90;;;;;;4995254;28;20757;-57
2023/04/21 08:36:38;;;;;;;11.60;9.10;;;16.10;99.90;;;;;;4995290;28;20996;-58
2023/04/21 08:39:06;;;;;;;12.43;9.10;;;16.10;99.90;;;;;;4997534;28;20717;-57
2023/04/21 08:41:34;;;;;;;10.43;8.83;;;16.40;99.90;;;;;;4996383;28;20233;-58
2023/04/21 08:44:04;;;;;;;10.27;9.03;;;16.50;99.90;;;;;;5000574;28;20682;-58
2023/04/21 08:46:33;;;;;;;9.70;8.70;;;16.40;99.90;;;;;;4995295;28;20249;-57
2023/04/21 08:49:02;;;;;;;11.90;9.13;;;16.30;99.90;;;;;;4996857;28;20669;-58
2023/04/21 08:51:31;;;;;;;10.17;8.70;;;16.50;99.90;;;;;;4995505;28;20819;-57
2023/04/21 08:53:59;;;;;;;11.00;8.83;;;16.40;99.90;;;;;;4994933;28;20720;-58
2023/04/21 08:56:27;;;;;;;11.23;9.27;;;16.40;99.90;;;;;;4997697;28;21480;-57
2023/04/21 08:58:55;;;;;;;13.73;9.90;;;16.50;99.90;;;;;;4997580;28;20230;-57
2023/04/21 09:01:25;;;;;;;9.47;8.53;;;16.80;99.90;;;;;;4995281;28;20238;-58
2023/04/21 09:03:53;;;;;;;9.17;8.23;;;17.00;99.90;;;;;;4993127;28;20238;-58
2023/04/21 09:06:21;;;;;;;10.37;8.23;;;17.30;99.90;;;;;;4995191;28;20241;-57
2023/04/21 09:08:55;;;;;;;11.37;9.07;;;17.30;99.90;;;;;;4994314;28;20335;-58
2023/04/21 09:11:24;;;;;;;11.33;8.83;;;17.30;99.90;;;;;;4994807;28;20229;-54
2023/04/21 09:13:57;;;;;;;11.97;8.57;;;17.10;99.90;;;;;;4992523;28;20235;-54
2023/04/21 09:16:31;;;;;;;10.70;8.23;;;17.10;99.90;;;;;;4994218;28;20700;-53
2023/04/21 09:19:00;;;;;;;10.83;8.83;;;17.50;99.90;;;;;;4995330;28;20602;-57
2023/04/21 09:21:30;;;;;;;10.23;8.30;;;17.80;99.90;;;;;;4999754;28;20239;-57
2023/04/21 09:24:05;;;;;;;10.33;8.07;;;17.70;99.90;;;;;;4999041;28;20252;-56
2023/04/21 09:26:33;;;;;;;10.50;8.30;;;17.70;99.90;;;;;;4999100;28;20245;-57
2023/04/21 09:29:06;;;;;;;11.00;8.37;;;17.90;99.90;;;;;;4999468;28;20264;-57
2023/04/21 09:31:36;;;;;;;9.90;7.43;;;18.10;99.90;;;;;;5008352;28;20777;-57
2023/04/21 09:34:18;;;;;;;10.37;8.17;;;18.40;99.90;;;;;;5013570;28;21285;-57
2023/04/21 09:36:47;;;;;;;10.33;8.90;;;18.20;99.90;;;;;;5014494;28;20227;-57
2023/04/21 09:39:15;;;;;;;12.83;8.77;;;18.20;99.90;;;;;;5015583;28;20221;-57
2023/04/21 09:41:46;;;;;;;11.87;7.97;;;18.50;99.90;;;;;;5014701;28;20246;-57
2023/04/21 09:44:16;;;;;;;11.97;8.47;;;18.50;99.90;;;;;;5012605;28;20863;-56
2023/04/21 09:46:49;;;;;;;10.57;7.90;;;18.50;99.90;;;;;;5011907;28;20813;-57
2023/04/21 09:49:18;;;;;;;10.03;7.60;;;19.10;99.90;;;;;;5011807;28;20228;-58
2023/04/21 09:51:46;;;;;;;9.73;7.70;;;19.20;99.90;;;;;;5011846;28;20235;-58
2023/04/21 09:54:19;;;;;;;10.40;7.87;;;19.40;99.90;;;;;;5011322;28;20228;-58
2023/04/21 09:56:53;;;;;;;13.27;7.87;;;19.20;99.90;;;;;;5013679;28;20223;-58
2023/04/21 09:59:26;;;;;;;10.20;7.47;;;18.90;99.90;;;;;;5013463;28;20725;-58
2023/04/21 10:01:57;;;;;;;12.97;8.57;;;19.20;99.90;;;;;;5008445;28;20781;-57
2023/04/21 10:04:26;;;;;;;9.97;7.57;;;19.20;99.90;;;;;;5011014;28;20286;-56
2023/04/21 10:06:56;;;;;;;12.50;8.17;;;19.50;99.90;;;;;;5011377;28;20236;-55
2023/04/21 10:09:26;;;;;;;9.67;8.07;;;19.50;99.90;;;;;;5011615;28;20634;-57
2023/04/21 10:11:55;;;;;;;10.47;7.97;;;19.90;99.90;;;;;;5012586;28;20246;-57
2023/04/21 10:14:25;;;;;;;12.70;8.17;;;20.30;99.90;;;;;;5010533;28;20255;-58
2023/04/21 10:17:03;;;;;;;11.33;7.97;;;20.30;99.90;;;;;;5010689;28;20833;-58
2023/04/21 10:19:35;;;;;;;13.20;7.77;;;20.10;99.90;;;;;;5012026;28;20239;-57
2023/04/21 10:22:03;;;;;;;13.30;8.40;;;20.30;99.90;;;;;;5010105;28;20887;-58
2023/04/21 10:24:31;;;;;;;11.10;8.33;;;20.40;99.90;;;;;;5011207;28;20227;-57
2023/04/21 10:27:00;;;;;;;11.03;7.90;;;20.20;99.90;;;;;;5012664;28;20704;-57
2023/04/21 10:29:30;;;;;;;10.43;8.10;;;20.30;99.90;;;;;;5013829;28;20723;-57
2023/04/21 10:32:31;;;;;;;12.70;8.70;;;20.30;99.90;;;;;;5014208;28;20240;-58
2023/04/21 10:34:59;;;;;;;11.83;8.00;;;20.20;99.90;;;;;;5011646;28;20224;-56
2023/04/21 10:37:31;;;;;;;9.27;8.27;;;20.20;99.90;;;;;;5010943;28;20224;-57
2023/04/21 10:39:59;;;;;;;11.40;8.33;;;20.20;99.90;;;;;;5010393;28;20256;-57
2023/04/21 10:42:36;;;;;;;10.20;7.27;;;20.20;99.90;;;;;;5009266;28;20615;-56
2023/04/21 10:45:11;;;;;;;10.93;8.63;;;20.40;99.90;;;;;;5011702;28;20228;-57
2023/04/21 10:47:43;;;;;;;8.50;7.60;;;20.40;99.90;;;;;;5010499;28;20246;-56
2023/04/21 10:50:14;;;;;;;10.33;7.30;;;20.30;99.90;;;;;;5010866;28;20806;-58
2023/04/21 10:52:56;;;;;;;9.70;8.00;;;20.60;99.90;;;;;;5009188;28;20889;-58
2023/04/21 10:55:27;;;;;;;10.33;7.90;;;20.70;99.90;;;;;;5010924;28;20731;-57
2023/04/21 10:57:57;;;;;;;10.60;8.50;;;20.60;99.90;;;;;;5010348;28;20217;-57
2023/04/21 11:00:26;;;;;;;11.83;8.07;;;20.40;99.90;;;;;;5009791;28;20624;-57
2023/04/21 11:02:59;;;;;;;8.83;7.73;;;20.50;99.90;;;;;;5009815;28;20232;-57
2023/04/21 11:05:34;;;;;;;9.77;7.50;;;20.10;99.90;;;;;;5010725;28;20587;-57
2023/04/21 11:08:13;;;;;;;8.10;7.20;;;20.40;99.90;;;;;;5009782;28;20238;-58
2023/04/21 11:10:47;;;;;;;11.13;7.80;;;20.60;99.90;;;;;;5009739;28;20234;-57
2023/04/21 11:13:15;;;;;;;9.00;7.60;;;20.50;99.90;;;;;;5009060;28;20630;-58
2023/04/21 11:16:05;;;;;;;8.20;7.03;;;20.70;99.90;;;;;;5009288;28;20240;-58
2023/04/21 11:18:45;;;;;;;9.63;8.10;;;20.60;99.90;;;;;;5010368;28;20234;-57
2023/04/21 11:21:16;;;;;;;10.83;7.63;;;20.80;99.90;;;;;;5010396;28;20338;-57
2023/04/21 11:23:52;;;;;;;11.93;7.80;;;21.00;99.90;;;;;;5008713;28;21124;-58
2023/04/21 11:26:31;;;;;;;9.97;7.50;;;21.20;99.90;;;;;;5009902;28;20591;-58
2023/04/21 11:29:03;;;;;;;9.27;6.97;;;21.10;99.90;;;;;;5010098;28;20232;-57
2023/04/21 11:31:31;;;;;;;8.23;7.33;;;21.30;99.90;;;;;;5009820;28;20612;-57
2023/04/21 11:34:04;;;;;;;7.90;7.17;;;21.30;99.90;;;;;;5008285;28;20261;-57
2023/04/21 11:36:32;;;;;;;12.20;7.13;;;21.10;99.90;;;;;;5011210;28;21458;-57
2023/04/21 11:39:06;;;;;;;8.87;7.13;;;21.20;99.90;;;;;;5009954;28;20243;-57
2023/04/21 11:41:35;;;;;;;8.20;7.10;;;21.40;99.90;;;;;;5013631;28;20307;-58
2023/04/21 11:44:03;;;;;;;8.87;6.87;;;21.30;99.90;;;;;;5011926;28;20235;-57
2023/04/21 11:46:32;;;;;;;10.03;7.73;;;21.30;99.90;;;;;;5014147;28;20232;-57
2023/04/21 11:49:03;;;;;;;10.67;7.10;;;21.20;99.90;;;;;;5014119;28;20220;-58
2023/04/21 11:51:35;;;;;;;9.03;6.90;;;21.20;99.90;;;;;;5014216;28;20224;-58
2023/04/21 11:54:08;;;;;;;9.77;7.03;;;21.10;99.90;;;;;;5012609;28;20232;-57
2023/04/21 11:56:37;;;;;;;8.47;6.73;;;21.10;99.90;;;;;;5013787;28;20264;-57
2023/04/21 11:59:09;;;;;;;9.50;7.20;;;20.80;99.90;;;;;;5015268;28;20880;-57
2023/04/21 12:01:43;;;;;;;10.93;7.13;;;20.40;99.90;;;;;;5013800;28;20729;-57
2023/04/21 12:04:16;;;;;;;8.80;6.90;;;20.40;99.90;;;;;;5011957;28;20244;-57
2023/04/21 12:06:46;;;;;;;9.70;6.47;;;20.30;99.90;;;;;;5013763;28;20853;-58
2023/04/21 12:09:18;;;;;;;10.27;6.40;;;20.30;99.90;;;;;;5014160;28;20236;-58
2023/04/21 12:11:48;;;;;;;10.80;6.80;;;20.40;99.90;;;;;;5013172;28;20708;-56
2023/04/21 12:14:20;;;;;;;10.03;6.80;;;20.40;99.90;;;;;;5011254;28;20225;-58
2023/04/21 12:16:50;;;;;;;9.47;7.07;;;20.50;99.90;;;;;;5013536;28;20723;-57
2023/04/21 12:19:35;;;;;;;8.13;6.23;;;20.60;99.90;;;;;;5014330;28;20216;-58
2023/04/21 12:22:08;;;;;;;7.87;6.40;;;20.60;99.90;;;;;;5011941;28;20232;-58
2023/04/21 12:24:36;;;;;;;7.03;6.03;;;20.60;99.90;;;;;;5012990;28;20232;-57
2023/04/21 12:27:05;;;;;;;10.53;6.53;;;20.60;99.90;;;;;;5013572;28;20779;-56
2023/04/21 12:29:34;;;;;;;7.70;5.87;;;20.50;99.90;;;;;;5013989;28;20250;-58
2023/04/21 12:32:02;;;;;;;7.57;6.27;;;20.60;99.80;;;;;;5011979;28;20241;-58
2023/04/21 12:34:32;;;;;;;8.03;6.30;;;20.60;99.30;;;;;;5012280;28;21108;-57
2023/04/21 12:37:00;;;;;;;7.37;6.60;;;20.50;99.20;;;;;;5013890;28;20235;-57
2023/04/21 12:39:28;;;;;;;8.57;6.47;;;20.60;99.40;;;;;;5013376;28;20243;-56
2023/04/21 12:41:57;;;;;;;6.97;6.27;;;20.70;99.90;;;;;;5012348;28;20282;-58
2023/04/21 12:44:25;;;;;;;10.13;6.30;;;20.60;99.40;;;;;;5010355;28;20233;-58
2023/04/21 12:46:54;;;;;;;9.17;6.30;;;20.50;98.60;;;;;;5014067;28;20235;-58
2023/04/21 12:49:22;;;;;;;8.47;6.17;;;20.40;98.30;;;;;;5013057;28;20878;-57